sensor_id;sensor_type;location;lat;lon;timestamp;P1;durP1;ratioP1;P2;durP2;ratioP2
68993;SDS011;56054;50.968;5.816;2023-02-28T00:01:13;12.87;;;4.87;;
68993;SDS011;56054;50.968;5.816;2023-02-28T00:04:21;8.33;;;5.10;;
68993;SDS011;56054;50.968;5.816;2023-02-28T00:07:36;9.97;;;4.87;;
68993;SDS011;56054;50.968;5.816;2023-02-28T00:11:00;8.63;;;4.20;;
68993;SDS011;56054;50.968;5.816;2023-02-28T00:14:12;8.43;;;4.80;;
68993;SDS011;56054;50.968;5.816;2023-02-28T00:17:28;14.20;;;4.83;;
68993;SDS011;56054;50.968;5.816;2023-02-28T00:20:37;7.43;;;4.40;;
68993;SDS011;56054;50.968;5.816;2023-02-28T00:24:09;10.57;;;5.17;;
68993;SDS011;56054;50.968;5.816;2023-02-28T00:27:29;10.13;;;5.00;;
68993;SDS011;56054;50.968;5.816;2023-02-28T00:31:02;12.17;;;4.43;;
68993;SDS011;56054;50.968;5.816;2023-02-28T00:34:19;8.87;;;5.00;;
68993;SDS011;56054;50.968;5.816;2023-02-28T00:37:32;14.67;;;6.00;;
68993;SDS011;56054;50.968;5.816;2023-02-28T00:41:05;7.97;;;4.87;;
68993;SDS011;56054;50.968;5.816;2023-02-28T00:44:51;10.60;;;4.57;;
68993;SDS011;56054;50.968;5.816;2023-02-28T00:48:08;11.23;;;4.77;;
68993;SDS011;56054;50.968;5.816;2023-02-28T00:51:21;10.20;;;5.00;;
68993;SDS011;56054;50.968;5.816;2023-02-28T00:54:34;8.07;;;4.90;;
68993;SDS011;56054;50.968;5.816;2023-02-28T00:57:41;9.07;;;4.97;;
68993;SDS011;56054;50.968;5.816;2023-02-28T01:01:22;11.90;;;5.10;;
68993;SDS011;56054;50.968;5.816;2023-02-28T01:04:56;8.53;;;4.93;;
68993;SDS011;56054;50.968;5.816;2023-02-28T01:08:04;8.47;;;4.93;;
68993;SDS011;56054;50.968;5.816;2023-02-28T01:11:12;9.90;;;4.57;;
68993;SDS011;56054;50.968;5.816;2023-02-28T01:14:22;10.37;;;4.60;;
68993;SDS011;56054;50.968;5.816;2023-02-28T01:17:38;11.10;;;5.17;;
68993;SDS011;56054;50.968;5.816;2023-02-28T01:25:01;6.97;;;4.77;;
68993;SDS011;56054;50.968;5.816;2023-02-28T01:36:13;6.47;;;4.30;;
68993;SDS011;56054;50.968;5.816;2023-02-28T01:54:37;8.27;;;4.90;;
68993;SDS011;56054;50.968;5.816;2023-02-28T01:57:52;8.70;;;4.77;;
68993;SDS011;56054;50.968;5.816;2023-02-28T02:01:03;7.90;;;4.40;;
68993;SDS011;56054;50.968;5.816;2023-02-28T02:04:10;10.70;;;5.00;;
68993;SDS011;56054;50.968;5.816;2023-02-28T02:07:17;11.30;;;5.37;;
68993;SDS011;56054;50.968;5.816;2023-02-28T02:17:49;7.30;;;4.67;;
68993;SDS011;56054;50.968;5.816;2023-02-28T02:39:51;13.60;;;5.40;;
68993;SDS011;56054;50.968;5.816;2023-02-28T02:43:15;8.20;;;4.60;;
68993;SDS011;56054;50.968;5.816;2023-02-28T02:47:00;12.60;;;5.60;;
68993;SDS011;56054;50.968;5.816;2023-02-28T02:50:17;8.00;;;4.70;;
68993;SDS011;56054;50.968;5.816;2023-02-28T02:53:44;8.30;;;4.83;;
68993;SDS011;56054;50.968;5.816;2023-02-28T02:57:10;9.93;;;4.93;;
68993;SDS011;56054;50.968;5.816;2023-02-28T03:00:25;12.27;;;4.93;;
68993;SDS011;56054;50.968;5.816;2023-02-28T03:03:47;10.23;;;4.73;;
68993;SDS011;56054;50.968;5.816;2023-02-28T03:06:55;10.30;;;5.00;;
68993;SDS011;56054;50.968;5.816;2023-02-28T03:17:48;9.13;;;4.53;;
68993;SDS011;56054;50.968;5.816;2023-02-28T03:21:14;7.50;;;4.97;;
68993;SDS011;56054;50.968;5.816;2023-02-28T03:24:35;8.60;;;5.43;;
68993;SDS011;56054;50.968;5.816;2023-02-28T03:31:58;8.63;;;4.70;;
68993;SDS011;56054;50.968;5.816;2023-02-28T03:35:14;10.40;;;4.93;;
68993;SDS011;56054;50.968;5.816;2023-02-28T03:42:28;8.13;;;5.40;;
68993;SDS011;56054;50.968;5.816;2023-02-28T03:45:38;9.10;;;5.30;;
68993;SDS011;56054;50.968;5.816;2023-02-28T03:49:02;12.00;;;4.87;;
68993;SDS011;56054;50.968;5.816;2023-02-28T03:52:15;12.37;;;5.33;;
68993;SDS011;56054;50.968;5.816;2023-02-28T03:55:54;13.03;;;5.07;;
68993;SDS011;56054;50.968;5.816;2023-02-28T03:59:30;10.33;;;5.23;;
68993;SDS011;56054;50.968;5.816;2023-02-28T04:02:48;14.03;;;6.17;;
68993;SDS011;56054;50.968;5.816;2023-02-28T04:05:55;8.13;;;5.63;;
68993;SDS011;56054;50.968;5.816;2023-02-28T04:09:07;15.37;;;6.57;;
68993;SDS011;56054;50.968;5.816;2023-02-28T04:12:17;11.60;;;6.43;;
68993;SDS011;56054;50.968;5.816;2023-02-28T04:15:27;12.70;;;5.87;;
68993;SDS011;56054;50.968;5.816;2023-02-28T04:18:33;12.13;;;5.70;;
68993;SDS011;56054;50.968;5.816;2023-02-28T04:21:42;10.07;;;6.43;;
68993;SDS011;56054;50.968;5.816;2023-02-28T04:24:52;9.00;;;5.80;;
68993;SDS011;56054;50.968;5.816;2023-02-28T04:28:08;11.20;;;5.77;;
68993;SDS011;56054;50.968;5.816;2023-02-28T04:31:17;10.13;;;6.07;;
68993;SDS011;56054;50.968;5.816;2023-02-28T04:34:24;9.20;;;6.17;;
68993;SDS011;56054;50.968;5.816;2023-02-28T04:37:37;9.40;;;5.90;;
68993;SDS011;56054;50.968;5.816;2023-02-28T04:40:44;9.07;;;5.50;;
68993;SDS011;56054;50.968;5.816;2023-02-28T04:44:16;8.20;;;5.27;;
68993;SDS011;56054;50.968;5.816;2023-02-28T04:47:33;13.83;;;6.13;;
68993;SDS011;56054;50.968;5.816;2023-02-28T04:50:40;10.37;;;5.43;;
68993;SDS011;56054;50.968;5.816;2023-02-28T04:54:12;13.43;;;6.40;;
68993;SDS011;56054;50.968;5.816;2023-02-28T05:01:06;8.23;;;5.27;;
68993;SDS011;56054;50.968;5.816;2023-02-28T05:04:40;10.87;;;5.50;;
68993;SDS011;56054;50.968;5.816;2023-02-28T05:07:46;12.90;;;6.37;;
68993;SDS011;56054;50.968;5.816;2023-02-28T05:11:03;10.17;;;6.23;;
68993;SDS011;56054;50.968;5.816;2023-02-28T05:14:14;11.87;;;6.23;;
68993;SDS011;56054;50.968;5.816;2023-02-28T05:17:21;9.40;;;5.63;;
68993;SDS011;56054;50.968;5.816;2023-02-28T05:20:37;12.10;;;6.07;;
68993;SDS011;56054;50.968;5.816;2023-02-28T05:23:44;9.87;;;5.30;;
68993;SDS011;56054;50.968;5.816;2023-02-28T05:26:52;8.37;;;5.90;;
68993;SDS011;56054;50.968;5.816;2023-02-28T05:30:06;11.33;;;5.87;;
68993;SDS011;56054;50.968;5.816;2023-02-28T05:33:14;13.40;;;6.63;;
68993;SDS011;56054;50.968;5.816;2023-02-28T05:36:21;10.60;;;5.97;;
68993;SDS011;56054;50.968;5.816;2023-02-28T05:39:28;10.90;;;6.47;;
68993;SDS011;56054;50.968;5.816;2023-02-28T05:42:43;10.80;;;7.03;;
68993;SDS011;56054;50.968;5.816;2023-02-28T05:45:50;10.23;;;5.40;;
68993;SDS011;56054;50.968;5.816;2023-02-28T05:49:22;8.87;;;5.80;;
68993;SDS011;56054;50.968;5.816;2023-02-28T05:52:30;8.33;;;5.63;;
68993;SDS011;56054;50.968;5.816;2023-02-28T05:55:37;9.37;;;5.80;;
68993;SDS011;56054;50.968;5.816;2023-02-28T05:58:52;12.13;;;6.27;;
68993;SDS011;56054;50.968;5.816;2023-02-28T06:02:02;13.77;;;6.77;;
68993;SDS011;56054;50.968;5.816;2023-02-28T06:05:16;15.97;;;6.47;;
68993;SDS011;56054;50.968;5.816;2023-02-28T06:08:24;8.70;;;5.97;;
68993;SDS011;56054;50.968;5.816;2023-02-28T06:11:31;7.77;;;5.37;;
68993;SDS011;56054;50.968;5.816;2023-02-28T06:14:39;9.10;;;5.33;;
68993;SDS011;56054;50.968;5.816;2023-02-28T06:17:47;12.03;;;6.10;;
68993;SDS011;56054;50.968;5.816;2023-02-28T06:20:54;14.13;;;6.03;;
68993;SDS011;56054;50.968;5.816;2023-02-28T06:24:14;11.47;;;5.77;;
68993;SDS011;56054;50.968;5.816;2023-02-28T06:27:22;11.23;;;6.10;;
68993;SDS011;56054;50.968;5.816;2023-02-28T06:30:32;11.47;;;5.67;;
68993;SDS011;56054;50.968;5.816;2023-02-28T06:37:46;11.63;;;5.20;;
68993;SDS011;56054;50.968;5.816;2023-02-28T06:41:12;6.27;;;4.93;;
68993;SDS011;56054;50.968;5.816;2023-02-28T06:44:38;11.37;;;4.63;;
68993;SDS011;56054;50.968;5.816;2023-02-28T06:47:50;11.33;;;5.87;;
68993;SDS011;56054;50.968;5.816;2023-02-28T06:51:22;12.17;;;5.67;;
68993;SDS011;56054;50.968;5.816;2023-02-28T06:54:30;15.27;;;5.93;;
68993;SDS011;56054;50.968;5.816;2023-02-28T06:57:37;7.53;;;5.53;;
68993;SDS011;56054;50.968;5.816;2023-02-28T07:01:10;8.27;;;4.73;;
68993;SDS011;56054;50.968;5.816;2023-02-28T07:04:47;11.77;;;5.40;;
68993;SDS011;56054;50.968;5.816;2023-02-28T07:08:03;10.47;;;4.73;;
68993;SDS011;56054;50.968;5.816;2023-02-28T07:11:10;6.97;;;4.70;;
68993;SDS011;56054;50.968;5.816;2023-02-28T07:14:16;8.23;;;5.13;;
68993;SDS011;56054;50.968;5.816;2023-02-28T07:17:33;9.40;;;4.50;;
68993;SDS011;56054;50.968;5.816;2023-02-28T07:20:40;7.63;;;4.50;;
68993;SDS011;56054;50.968;5.816;2023-02-28T07:23:52;13.67;;;5.50;;
68993;SDS011;56054;50.968;5.816;2023-02-28T07:27:02;9.47;;;5.73;;
68993;SDS011;56054;50.968;5.816;2023-02-28T07:30:18;8.63;;;4.70;;
68993;SDS011;56054;50.968;5.816;2023-02-28T07:33:34;10.60;;;4.47;;
68993;SDS011;56054;50.968;5.816;2023-02-28T07:36:41;6.93;;;4.37;;
68993;SDS011;56054;50.968;5.816;2023-02-28T07:39:55;9.30;;;4.70;;
68993;SDS011;56054;50.968;5.816;2023-02-28T07:43:27;8.87;;;4.30;;
68993;SDS011;56054;50.968;5.816;2023-02-28T07:47:00;9.70;;;4.83;;
68993;SDS011;56054;50.968;5.816;2023-02-28T07:50:09;9.97;;;4.60;;
68993;SDS011;56054;50.968;5.816;2023-02-28T07:53:18;10.60;;;4.60;;
68993;SDS011;56054;50.968;5.816;2023-02-28T07:56:25;9.60;;;4.10;;
68993;SDS011;56054;50.968;5.816;2023-02-28T07:59:33;6.57;;;4.17;;
68993;SDS011;56054;50.968;5.816;2023-02-28T08:02:40;6.90;;;3.67;;
68993;SDS011;56054;50.968;5.816;2023-02-28T08:05:53;7.40;;;4.40;;
68993;SDS011;56054;50.968;5.816;2023-02-28T08:09:00;13.23;;;3.67;;
68993;SDS011;56054;50.968;5.816;2023-02-28T08:12:17;4.67;;;3.70;;
68993;SDS011;56054;50.968;5.816;2023-02-28T08:15:24;6.67;;;4.33;;
68993;SDS011;56054;50.968;5.816;2023-02-28T08:18:31;6.60;;;3.93;;
68993;SDS011;56054;50.968;5.816;2023-02-28T08:21:39;8.53;;;3.57;;
68993;SDS011;56054;50.968;5.816;2023-02-28T08:24:46;8.07;;;4.00;;
68993;SDS011;56054;50.968;5.816;2023-02-28T08:27:53;8.50;;;3.97;;
68993;SDS011;56054;50.968;5.816;2023-02-28T08:31:06;7.55;;;4.35;;
68993;SDS011;56054;50.968;5.816;2023-02-28T08:34:15;7.37;;;4.10;;
68993;SDS011;56054;50.968;5.816;2023-02-28T08:37:48;8.53;;;2.80;;
68993;SDS011;56054;50.968;5.816;2023-02-28T08:40:59;5.40;;;3.40;;
68993;SDS011;56054;50.968;5.816;2023-02-28T08:44:33;8.07;;;2.73;;
68993;SDS011;56054;50.968;5.816;2023-02-28T08:47:43;5.63;;;3.13;;
68993;SDS011;56054;50.968;5.816;2023-02-28T08:50:56;4.20;;;2.60;;
68993;SDS011;56054;50.968;5.816;2023-02-28T08:54:43;6.33;;;2.53;;
68993;SDS011;56054;50.968;5.816;2023-02-28T08:57:50;4.83;;;3.27;;
68993;SDS011;56054;50.968;5.816;2023-02-28T09:00:58;3.13;;;2.37;;
68993;SDS011;56054;50.968;5.816;2023-02-28T09:04:05;7.80;;;2.97;;
68993;SDS011;56054;50.968;5.816;2023-02-28T09:07:12;4.33;;;2.70;;
68993;SDS011;56054;50.968;5.816;2023-02-28T09:10:19;8.03;;;2.40;;
68993;SDS011;56054;50.968;5.816;2023-02-28T09:13:26;5.37;;;1.90;;
68993;SDS011;56054;50.968;5.816;2023-02-28T09:16:38;4.63;;;2.60;;
68993;SDS011;56054;50.968;5.816;2023-02-28T09:19:47;4.17;;;2.10;;
68993;SDS011;56054;50.968;5.816;2023-02-28T09:22:57;4.43;;;2.40;;
68993;SDS011;56054;50.968;5.816;2023-02-28T09:26:30;3.43;;;2.17;;
68993;SDS011;56054;50.968;5.816;2023-02-28T09:29:38;3.47;;;2.03;;
68993;SDS011;56054;50.968;5.816;2023-02-28T09:32:49;4.80;;;2.67;;
68993;SDS011;56054;50.968;5.816;2023-02-28T09:52:05;4.83;;;2.23;;
68993;SDS011;56054;50.968;5.816;2023-02-28T10:16:10;3.00;;;1.83;;
68993;SDS011;56054;50.968;5.816;2023-02-28T10:19:55;1.87;;;1.30;;
68993;SDS011;56054;50.968;5.816;2023-02-28T10:23:48;1.67;;;1.50;;
68993;SDS011;56054;50.968;5.816;2023-02-28T10:27:16;3.17;;;1.53;;
68993;SDS011;56054;50.968;5.816;2023-02-28T10:30:24;3.07;;;1.57;;
68993;SDS011;56054;50.968;5.816;2023-02-28T10:33:32;2.13;;;1.27;;
68993;SDS011;56054;50.968;5.816;2023-02-28T10:36:41;2.63;;;1.40;;
68993;SDS011;56054;50.968;5.816;2023-02-28T10:43:39;2.67;;;1.90;;
68993;SDS011;56054;50.968;5.816;2023-02-28T10:46:48;2.67;;;1.23;;
68993;SDS011;56054;50.968;5.816;2023-02-28T10:50:08;6.57;;;1.00;;
68993;SDS011;56054;50.968;5.816;2023-02-28T11:00:38;1.37;;;1.07;;
68993;SDS011;56054;50.968;5.816;2023-02-28T11:03:45;1.97;;;1.10;;
68993;SDS011;56054;50.968;5.816;2023-02-28T11:06:56;2.07;;;1.20;;
68993;SDS011;56054;50.968;5.816;2023-02-28T11:21:36;2.73;;;1.30;;
68993;SDS011;56054;50.968;5.816;2023-02-28T11:24:50;2.60;;;1.03;;
68993;SDS011;56054;50.968;5.816;2023-02-28T11:28:09;2.17;;;1.40;;
68993;SDS011;56054;50.968;5.816;2023-02-28T11:31:39;5.83;;;1.90;;
68993;SDS011;56054;50.968;5.816;2023-02-28T11:34:47;2.00;;;1.37;;
68993;SDS011;56054;50.968;5.816;2023-02-28T11:38:13;2.47;;;1.37;;
68993;SDS011;56054;50.968;5.816;2023-02-28T11:45:43;1.80;;;1.40;;
68993;SDS011;56054;50.968;5.816;2023-02-28T11:56:05;2.70;;;1.63;;
68993;SDS011;56054;50.968;5.816;2023-02-28T12:09:37;2.87;;;1.80;;
68993;SDS011;56054;50.968;5.816;2023-02-28T12:13:39;5.63;;;2.40;;
68993;SDS011;56054;50.968;5.816;2023-02-28T12:20:43;3.07;;;2.10;;
68993;SDS011;56054;50.968;5.816;2023-02-28T12:24:22;2.50;;;1.83;;
68993;SDS011;56054;50.968;5.816;2023-02-28T12:27:48;2.93;;;1.67;;
68993;SDS011;56054;50.968;5.816;2023-02-28T12:34:39;2.77;;;1.90;;
68993;SDS011;56054;50.968;5.816;2023-02-28T12:44:47;3.90;;;2.00;;
68993;SDS011;56054;50.968;5.816;2023-02-28T12:48:03;2.33;;;1.77;;
68993;SDS011;56054;50.968;5.816;2023-02-28T12:51:18;4.70;;;2.17;;
68993;SDS011;56054;50.968;5.816;2023-02-28T12:54:35;3.03;;;1.83;;
68993;SDS011;56054;50.968;5.816;2023-02-28T12:58:01;6.03;;;2.10;;
68993;SDS011;56054;50.968;5.816;2023-02-28T13:11:42;2.83;;;1.80;;
68993;SDS011;56054;50.968;5.816;2023-02-28T13:18:43;4.03;;;2.00;;
68993;SDS011;56054;50.968;5.816;2023-02-28T13:25:52;2.83;;;2.10;;
68993;SDS011;56054;50.968;5.816;2023-02-28T13:29:01;3.17;;;1.90;;
68993;SDS011;56054;50.968;5.816;2023-02-28T13:35:37;3.67;;;2.07;;
68993;SDS011;56054;50.968;5.816;2023-02-28T13:39:52;3.33;;;2.17;;
68993;SDS011;56054;50.968;5.816;2023-02-28T13:50:39;3.20;;;1.90;;
68993;SDS011;56054;50.968;5.816;2023-02-28T13:54:04;5.37;;;2.10;;
68993;SDS011;56054;50.968;5.816;2023-02-28T14:05:33;7.50;;;3.00;;
68993;SDS011;56054;50.968;5.816;2023-02-28T14:16:57;4.93;;;1.77;;
68993;SDS011;56054;50.968;5.816;2023-02-28T14:20:05;2.53;;;1.93;;
68993;SDS011;56054;50.968;5.816;2023-02-28T14:30:36;3.77;;;1.80;;
68993;SDS011;56054;50.968;5.816;2023-02-28T14:37:01;2.97;;;1.97;;
68993;SDS011;56054;50.968;5.816;2023-02-28T14:44:17;4.23;;;2.50;;
68993;SDS011;56054;50.968;5.816;2023-02-28T14:47:35;3.97;;;1.97;;
68993;SDS011;56054;50.968;5.816;2023-02-28T14:50:48;3.80;;;2.63;;
68993;SDS011;56054;50.968;5.816;2023-02-28T14:54:02;6.43;;;2.37;;
68993;SDS011;56054;50.968;5.816;2023-02-28T15:00:54;5.93;;;2.27;;
68993;SDS011;56054;50.968;5.816;2023-02-28T15:04:04;5.23;;;2.00;;
68993;SDS011;56054;50.968;5.816;2023-02-28T15:07:44;5.23;;;2.20;;
68993;SDS011;56054;50.968;5.816;2023-02-28T15:10:56;6.43;;;1.97;;
68993;SDS011;56054;50.968;5.816;2023-02-28T15:14:21;4.47;;;2.43;;
68993;SDS011;56054;50.968;5.816;2023-02-28T15:17:29;3.73;;;2.20;;
68993;SDS011;56054;50.968;5.816;2023-02-28T15:20:38;3.90;;;2.40;;
68993;SDS011;56054;50.968;5.816;2023-02-28T15:23:48;3.97;;;2.30;;
68993;SDS011;56054;50.968;5.816;2023-02-28T15:27:07;4.40;;;2.17;;
68993;SDS011;56054;50.968;5.816;2023-02-28T15:33:34;3.97;;;2.20;;
68993;SDS011;56054;50.968;5.816;2023-02-28T15:36:49;5.30;;;2.67;;
68993;SDS011;56054;50.968;5.816;2023-02-28T15:40:15;5.10;;;2.70;;
68993;SDS011;56054;50.968;5.816;2023-02-28T15:46:37;3.60;;;2.20;;
68993;SDS011;56054;50.968;5.816;2023-02-28T15:49:47;7.17;;;3.40;;
68993;SDS011;56054;50.968;5.816;2023-02-28T15:52:58;7.30;;;2.97;;
68993;SDS011;56054;50.968;5.816;2023-02-28T15:56:29;3.00;;;1.93;;
68993;SDS011;56054;50.968;5.816;2023-02-28T15:59:35;4.30;;;2.43;;
68993;SDS011;56054;50.968;5.816;2023-02-28T16:02:44;5.27;;;3.33;;
68993;SDS011;56054;50.968;5.816;2023-02-28T16:09:23;8.13;;;3.20;;
68993;SDS011;56054;50.968;5.816;2023-02-28T16:12:31;5.60;;;2.50;;
68993;SDS011;56054;50.968;5.816;2023-02-28T16:15:41;9.23;;;3.53;;
68993;SDS011;56054;50.968;5.816;2023-02-28T16:18:53;3.73;;;2.13;;
68993;SDS011;56054;50.968;5.816;2023-02-28T16:22:26;5.03;;;2.43;;
68993;SDS011;56054;50.968;5.816;2023-02-28T16:29:22;3.00;;;2.23;;
68993;SDS011;56054;50.968;5.816;2023-02-28T16:33:04;3.80;;;2.73;;
68993;SDS011;56054;50.968;5.816;2023-02-28T16:36:38;8.17;;;2.87;;
68993;SDS011;56054;50.968;5.816;2023-02-28T16:55:28;4.77;;;3.00;;
68993;SDS011;56054;50.968;5.816;2023-02-28T17:02:58;8.57;;;3.27;;
68993;SDS011;56054;50.968;5.816;2023-02-28T17:29:26;12.73;;;6.53;;
68993;SDS011;56054;50.968;5.816;2023-02-28T17:32:49;10.47;;;6.70;;
68993;SDS011;56054;50.968;5.816;2023-02-28T17:35:59;6.90;;;4.73;;
68993;SDS011;56054;50.968;5.816;2023-02-28T17:39:19;5.67;;;3.00;;
68993;SDS011;56054;50.968;5.816;2023-02-28T17:42:28;9.00;;;4.57;;
68993;SDS011;56054;50.968;5.816;2023-02-28T17:45:48;7.57;;;3.63;;
68993;SDS011;56054;50.968;5.816;2023-02-28T17:48:55;6.23;;;3.20;;
68993;SDS011;56054;50.968;5.816;2023-02-28T17:52:08;8.73;;;4.90;;
68993;SDS011;56054;50.968;5.816;2023-02-28T17:55:24;9.13;;;4.17;;
68993;SDS011;56054;50.968;5.816;2023-02-28T17:58:32;6.90;;;3.57;;
68993;SDS011;56054;50.968;5.816;2023-02-28T18:01:39;5.67;;;3.53;;
68993;SDS011;56054;50.968;5.816;2023-02-28T18:04:48;7.23;;;4.07;;
68993;SDS011;56054;50.968;5.816;2023-02-28T18:07:59;7.53;;;3.90;;
68993;SDS011;56054;50.968;5.816;2023-02-28T18:14:44;6.07;;;3.40;;
68993;SDS011;56054;50.968;5.816;2023-02-28T18:17:53;9.47;;;3.30;;
68993;SDS011;56054;50.968;5.816;2023-02-28T18:21:10;5.00;;;3.07;;
68993;SDS011;56054;50.968;5.816;2023-02-28T18:24:21;5.50;;;3.53;;
68993;SDS011;56054;50.968;5.816;2023-02-28T18:27:29;13.93;;;3.60;;
68993;SDS011;56054;50.968;5.816;2023-02-28T18:30:36;5.20;;;3.33;;
68993;SDS011;56054;50.968;5.816;2023-02-28T18:33:49;11.80;;;5.13;;
68993;SDS011;56054;50.968;5.816;2023-02-28T18:37:07;9.37;;;4.67;;
68993;SDS011;56054;50.968;5.816;2023-02-28T18:40:24;11.90;;;6.00;;
68993;SDS011;56054;50.968;5.816;2023-02-28T18:43:34;41.43;;;17.47;;
68993;SDS011;56054;50.968;5.816;2023-02-28T18:46:58;26.10;;;11.80;;
68993;SDS011;56054;50.968;5.816;2023-02-28T18:50:05;13.30;;;6.63;;
68993;SDS011;56054;50.968;5.816;2023-02-28T18:53:54;36.93;;;14.97;;
68993;SDS011;56054;50.968;5.816;2023-02-28T18:57:18;22.07;;;9.67;;
68993;SDS011;56054;50.968;5.816;2023-02-28T19:00:27;30.03;;;12.03;;
68993;SDS011;56054;50.968;5.816;2023-02-28T19:03:35;27.07;;;10.53;;
68993;SDS011;56054;50.968;5.816;2023-02-28T19:06:42;22.90;;;11.10;;
68993;SDS011;56054;50.968;5.816;2023-02-28T19:09:49;14.40;;;6.80;;
68993;SDS011;56054;50.968;5.816;2023-02-28T19:13:02;62.13;;;24.30;;
68993;SDS011;56054;50.968;5.816;2023-02-28T19:16:34;20.60;;;7.53;;
68993;SDS011;56054;50.968;5.816;2023-02-28T19:20:13;11.07;;;6.43;;
68993;SDS011;56054;50.968;5.816;2023-02-28T19:23:20;14.00;;;6.17;;
68993;SDS011;56054;50.968;5.816;2023-02-28T19:26:39;8.23;;;5.17;;
68993;SDS011;56054;50.968;5.816;2023-02-28T19:29:46;7.53;;;4.67;;
68993;SDS011;56054;50.968;5.816;2023-02-28T19:33:03;8.37;;;4.13;;
68993;SDS011;56054;50.968;5.816;2023-02-28T19:36:10;8.00;;;4.77;;
68993;SDS011;56054;50.968;5.816;2023-02-28T19:39:23;9.00;;;5.00;;
68993;SDS011;56054;50.968;5.816;2023-02-28T19:42:30;12.43;;;5.27;;
68993;SDS011;56054;50.968;5.816;2023-02-28T19:45:37;9.63;;;5.97;;
68993;SDS011;56054;50.968;5.816;2023-02-28T19:49:08;9.07;;;5.73;;
68993;SDS011;56054;50.968;5.816;2023-02-28T19:52:22;11.37;;;5.53;;
68993;SDS011;56054;50.968;5.816;2023-02-28T19:55:30;9.43;;;6.83;;
68993;SDS011;56054;50.968;5.816;2023-02-28T19:58:38;9.30;;;5.07;;
68993;SDS011;56054;50.968;5.816;2023-02-28T20:02:02;13.10;;;6.90;;
68993;SDS011;56054;50.968;5.816;2023-02-28T20:05:10;10.90;;;5.67;;
68993;SDS011;56054;50.968;5.816;2023-02-28T20:08:22;10.67;;;5.13;;
68993;SDS011;56054;50.968;5.816;2023-02-28T20:11:48;9.27;;;4.80;;
68993;SDS011;56054;50.968;5.816;2023-02-28T20:15:13;8.33;;;4.80;;
68993;SDS011;56054;50.968;5.816;2023-02-28T20:18:21;8.77;;;4.43;;
68993;SDS011;56054;50.968;5.816;2023-02-28T20:21:28;7.23;;;4.53;;
68993;SDS011;56054;50.968;5.816;2023-02-28T20:24:35;21.03;;;16.10;;
68993;SDS011;56054;50.968;5.816;2023-02-28T20:27:43;16.50;;;11.37;;
68993;SDS011;56054;50.968;5.816;2023-02-28T20:30:59;19.10;;;12.60;;
68993;SDS011;56054;50.968;5.816;2023-02-28T20:34:07;19.20;;;15.93;;
68993;SDS011;56054;50.968;5.816;2023-02-28T20:37:33;23.00;;;12.17;;
68993;SDS011;56054;50.968;5.816;2023-02-28T20:40:44;17.50;;;9.17;;
68993;SDS011;56054;50.968;5.816;2023-02-28T20:43:53;15.90;;;9.90;;
68993;SDS011;56054;50.968;5.816;2023-02-28T20:47:28;12.00;;;7.87;;
68993;SDS011;56054;50.968;5.816;2023-02-28T20:54:14;13.10;;;7.30;;
68993;SDS011;56054;50.968;5.816;2023-02-28T20:57:23;14.17;;;9.13;;
68993;SDS011;56054;50.968;5.816;2023-02-28T21:00:30;13.93;;;7.13;;
68993;SDS011;56054;50.968;5.816;2023-02-28T21:03:56;11.73;;;7.30;;
68993;SDS011;56054;50.968;5.816;2023-02-28T21:07:05;15.20;;;8.07;;
68993;SDS011;56054;50.968;5.816;2023-02-28T21:10:13;15.27;;;8.00;;
68993;SDS011;56054;50.968;5.816;2023-02-28T21:13:21;10.63;;;5.87;;
68993;SDS011;56054;50.968;5.816;2023-02-28T21:20:00;8.90;;;5.73;;
68993;SDS011;56054;50.968;5.816;2023-02-28T21:23:08;14.83;;;6.53;;
68993;SDS011;56054;50.968;5.816;2023-02-28T21:26:24;8.10;;;5.20;;
68993;SDS011;56054;50.968;5.816;2023-02-28T21:29:37;7.50;;;4.67;;
68993;SDS011;56054;50.968;5.816;2023-02-28T21:32:44;9.77;;;4.87;;
68993;SDS011;56054;50.968;5.816;2023-02-28T21:39:38;11.07;;;5.07;;
68993;SDS011;56054;50.968;5.816;2023-02-28T21:42:45;13.23;;;6.03;;
68993;SDS011;56054;50.968;5.816;2023-02-28T21:45:53;11.63;;;5.93;;
68993;SDS011;56054;50.968;5.816;2023-02-28T21:49:34;111.67;;;38.67;;
68993;SDS011;56054;50.968;5.816;2023-02-28T21:52:41;42.17;;;23.27;;
68993;SDS011;56054;50.968;5.816;2023-02-28T21:55:48;21.63;;;11.20;;
68993;SDS011;56054;50.968;5.816;2023-02-28T21:59:20;18.13;;;7.63;;
68993;SDS011;56054;50.968;5.816;2023-02-28T22:02:28;12.00;;;8.23;;
68993;SDS011;56054;50.968;5.816;2023-02-28T22:05:38;12.83;;;7.57;;
68993;SDS011;56054;50.968;5.816;2023-02-28T22:08:49;14.47;;;8.57;;
68993;SDS011;56054;50.968;5.816;2023-02-28T22:15:30;10.53;;;5.90;;
68993;SDS011;56054;50.968;5.816;2023-02-28T22:18:37;15.47;;;8.63;;
68993;SDS011;56054;50.968;5.816;2023-02-28T22:21:45;12.30;;;7.00;;
68993;SDS011;56054;50.968;5.816;2023-02-28T22:24:52;12.07;;;6.83;;
68993;SDS011;56054;50.968;5.816;2023-02-28T22:27:59;11.77;;;6.20;;
68993;SDS011;56054;50.968;5.816;2023-02-28T22:31:28;10.60;;;5.60;;
68993;SDS011;56054;50.968;5.816;2023-02-28T22:34:43;12.83;;;7.03;;
68993;SDS011;56054;50.968;5.816;2023-02-28T22:37:53;11.83;;;7.10;;
68993;SDS011;56054;50.968;5.816;2023-02-28T22:41:00;11.17;;;6.73;;
68993;SDS011;56054;50.968;5.816;2023-02-28T22:44:34;12.13;;;7.00;;
68993;SDS011;56054;50.968;5.816;2023-02-28T22:47:57;12.30;;;6.53;;
68993;SDS011;56054;50.968;5.816;2023-02-28T22:51:13;11.80;;;5.57;;
68993;SDS011;56054;50.968;5.816;2023-02-28T22:54:23;9.30;;;5.50;;
68993;SDS011;56054;50.968;5.816;2023-02-28T22:57:30;9.13;;;6.03;;
68993;SDS011;56054;50.968;5.816;2023-02-28T23:00:37;13.17;;;6.83;;
68993;SDS011;56054;50.968;5.816;2023-02-28T23:03:44;14.23;;;8.03;;
68993;SDS011;56054;50.968;5.816;2023-02-28T23:07:09;12.07;;;6.60;;
68993;SDS011;56054;50.968;5.816;2023-02-28T23:10:16;8.30;;;5.57;;
68993;SDS011;56054;50.968;5.816;2023-02-28T23:13:29;9.83;;;6.53;;
68993;SDS011;56054;50.968;5.816;2023-02-28T23:16:37;12.40;;;6.70;;
68993;SDS011;56054;50.968;5.816;2023-02-28T23:19:53;10.63;;;5.50;;
68993;SDS011;56054;50.968;5.816;2023-02-28T23:23:03;8.70;;;5.93;;
68993;SDS011;56054;50.968;5.816;2023-02-28T23:26:12;13.03;;;7.30;;
68993;SDS011;56054;50.968;5.816;2023-02-28T23:29:19;10.63;;;6.07;;
68993;SDS011;56054;50.968;5.816;2023-02-28T23:32:49;10.97;;;5.80;;
68993;SDS011;56054;50.968;5.816;2023-02-28T23:36:14;13.80;;;6.57;;
68993;SDS011;56054;50.968;5.816;2023-02-28T23:39:24;9.83;;;6.67;;
68993;SDS011;56054;50.968;5.816;2023-02-28T23:46:14;9.53;;;6.40;;
68993;SDS011;56054;50.968;5.816;2023-02-28T23:49:33;11.90;;;6.17;;
68993;SDS011;56054;50.968;5.816;2023-02-28T23:56:48;11.57;;;5.87;;
68993;SDS011;56054;50.968;5.816;2023-02-28T23:59:55;12.17;;;6.10;;
